sensor_id;sensor_type;location;lat;lon;timestamp;pressure;altitude;pressure_sealevel;temperature;humidity
6090;BME280;3073;42.660;23.316;2023-07-30T00:01:07;94385.19;;;27.61;51.00
6090;BME280;3073;42.660;23.316;2023-07-30T00:03:34;94393.00;;;27.23;51.27
6090;BME280;3073;42.660;23.316;2023-07-30T00:06:00;94389.28;;;27.04;52.33
6090;BME280;3073;42.660;23.316;2023-07-30T00:08:27;94390.09;;;27.08;52.15
6090;BME280;3073;42.660;23.316;2023-07-30T00:10:56;94384.81;;;26.89;52.92
6090;BME280;3073;42.660;23.316;2023-07-30T00:13:25;94381.09;;;26.59;53.55
6090;BME280;3073;42.660;23.316;2023-07-30T00:15:52;94379.41;;;26.67;53.42
6090;BME280;3073;42.660;23.316;2023-07-30T00:18:19;94375.94;;;26.62;53.40
6090;BME280;3073;42.660;23.316;2023-07-30T00:20:44;94381.94;;;26.63;53.52
6090;BME280;3073;42.660;23.316;2023-07-30T00:23:11;94378.06;;;26.57;53.54
6090;BME280;3073;42.660;23.316;2023-07-30T00:25:38;94379.50;;;26.70;53.17
6090;BME280;3073;42.660;23.316;2023-07-30T00:28:05;94376.84;;;27.01;52.56
6090;BME280;3073;42.660;23.316;2023-07-30T00:30:33;94367.50;;;27.20;51.80
6090;BME280;3073;42.660;23.316;2023-07-30T00:33:00;94368.13;;;27.32;51.41
6090;BME280;3073;42.660;23.316;2023-07-30T00:35:26;94366.53;;;27.28;51.89
6090;BME280;3073;42.660;23.316;2023-07-30T00:37:53;94357.84;;;27.24;51.71
6090;BME280;3073;42.660;23.316;2023-07-30T00:40:20;94362.88;;;27.32;51.52
6090;BME280;3073;42.660;23.316;2023-07-30T00:42:47;94365.84;;;27.31;51.45
6090;BME280;3073;42.660;23.316;2023-07-30T00:45:13;94362.94;;;27.36;51.10
6090;BME280;3073;42.660;23.316;2023-07-30T00:47:42;94369.03;;;27.40;50.93
6090;BME280;3073;42.660;23.316;2023-07-30T00:50:10;94370.34;;;27.49;50.74
6090;BME280;3073;42.660;23.316;2023-07-30T00:52:39;94372.84;;;27.61;50.29
6090;BME280;3073;42.660;23.316;2023-07-30T00:55:07;94365.88;;;27.50;51.07
6090;BME280;3073;42.660;23.316;2023-07-30T00:57:36;94367.53;;;27.58;51.24
6090;BME280;3073;42.660;23.316;2023-07-30T01:00:04;94365.06;;;27.65;51.60
6090;BME280;3073;42.660;23.316;2023-07-30T01:02:35;94367.53;;;27.58;52.26
6090;BME280;3073;42.660;23.316;2023-07-30T01:05:04;94365.69;;;27.58;52.09
6090;BME280;3073;42.660;23.316;2023-07-30T01:07:31;94370.81;;;27.36;52.52
6090;BME280;3073;42.660;23.316;2023-07-30T01:09:59;94368.31;;;27.24;52.82
6090;BME280;3073;42.660;23.316;2023-07-30T01:12:28;94370.81;;;27.36;52.42
6090;BME280;3073;42.660;23.316;2023-07-30T01:14:56;94369.47;;;27.42;52.07
6090;BME280;3073;42.660;23.316;2023-07-30T01:17:23;94365.09;;;27.30;52.83
6090;BME280;3073;42.660;23.316;2023-07-30T01:19:52;94376.75;;;27.33;52.84
6090;BME280;3073;42.660;23.316;2023-07-30T01:22:21;94382.25;;;27.08;53.54
6090;BME280;3073;42.660;23.316;2023-07-30T01:24:49;94366.72;;;27.19;53.07
6090;BME280;3073;42.660;23.316;2023-07-30T01:27:20;94365.78;;;27.27;52.95
6090;BME280;3073;42.660;23.316;2023-07-30T01:29:52;94366.53;;;27.28;53.06
6090;BME280;3073;42.660;23.316;2023-07-30T01:32:25;94371.66;;;27.40;53.33
6090;BME280;3073;42.660;23.316;2023-07-30T01:34:53;94361.72;;;27.30;53.46
6090;BME280;3073;42.660;23.316;2023-07-30T01:37:22;94369.00;;;27.21;53.33
6090;BME280;3073;42.660;23.316;2023-07-30T01:39:50;94371.72;;;26.89;53.61
6090;BME280;3073;42.660;23.316;2023-07-30T01:42:17;94369.22;;;27.12;53.04
6090;BME280;3073;42.660;23.316;2023-07-30T01:44:44;94378.47;;;26.90;53.77
6090;BME280;3073;42.660;23.316;2023-07-30T01:47:11;94382.28;;;26.77;53.55
6090;BME280;3073;42.660;23.316;2023-07-30T01:49:37;94377.06;;;26.46;53.65
6090;BME280;3073;42.660;23.316;2023-07-30T01:52:04;94381.69;;;26.68;53.44
6090;BME280;3073;42.660;23.316;2023-07-30T01:54:33;94383.31;;;26.57;52.96
6090;BME280;3073;42.660;23.316;2023-07-30T01:57:00;94381.63;;;26.49;53.37
6090;BME280;3073;42.660;23.316;2023-07-30T01:59:27;94382.09;;;26.07;54.11
6090;BME280;3073;42.660;23.316;2023-07-30T02:01:54;94380.25;;;25.80;55.10
6090;BME280;3073;42.660;23.316;2023-07-30T02:04:20;94381.81;;;25.41;56.96
6090;BME280;3073;42.660;23.316;2023-07-30T02:06:47;94385.06;;;24.98;58.73
6090;BME280;3073;42.660;23.316;2023-07-30T02:09:15;94385.38;;;24.73;60.68
6090;BME280;3073;42.660;23.316;2023-07-30T02:11:43;94378.72;;;24.39;61.85
6090;BME280;3073;42.660;23.316;2023-07-30T02:14:10;94381.34;;;24.75;60.91
6090;BME280;3073;42.660;23.316;2023-07-30T02:16:36;94385.94;;;24.90;61.14
6090;BME280;3073;42.660;23.316;2023-07-30T02:19:03;94384.41;;;24.77;61.41
6090;BME280;3073;42.660;23.316;2023-07-30T02:21:30;94382.31;;;25.07;60.51
6090;BME280;3073;42.660;23.316;2023-07-30T02:23:59;94386.56;;;25.12;60.36
6090;BME280;3073;42.660;23.316;2023-07-30T02:26:25;94386.94;;;25.26;60.46
6090;BME280;3073;42.660;23.316;2023-07-30T02:28:54;94389.94;;;25.52;59.21
6090;BME280;3073;42.660;23.316;2023-07-30T02:31:20;94395.16;;;25.64;58.85
6090;BME280;3073;42.660;23.316;2023-07-30T02:33:47;94398.63;;;25.68;58.83
6090;BME280;3073;42.660;23.316;2023-07-30T02:36:14;94405.13;;;25.74;58.62
6090;BME280;3073;42.660;23.316;2023-07-30T02:38:40;94402.41;;;25.71;58.70
6090;BME280;3073;42.660;23.316;2023-07-30T02:41:07;94402.25;;;25.79;58.72
6090;BME280;3073;42.660;23.316;2023-07-30T02:43:34;94399.50;;;25.60;59.07
6090;BME280;3073;42.660;23.316;2023-07-30T02:46:02;94399.66;;;25.79;58.92
6090;BME280;3073;42.660;23.316;2023-07-30T02:48:29;94404.44;;;25.62;59.44
6090;BME280;3073;42.660;23.316;2023-07-30T02:50:55;94396.59;;;25.62;59.54
6090;BME280;3073;42.660;23.316;2023-07-30T02:53:22;94391.69;;;25.88;58.82
6090;BME280;3073;42.660;23.316;2023-07-30T02:55:49;94403.19;;;26.15;57.58
6090;BME280;3073;42.660;23.316;2023-07-30T02:58:16;94397.69;;;26.04;57.97
6090;BME280;3073;42.660;23.316;2023-07-30T03:00:42;94397.00;;;26.07;57.80
6090;BME280;3073;42.660;23.316;2023-07-30T03:03:10;94400.63;;;26.02;57.81
6090;BME280;3073;42.660;23.316;2023-07-30T03:05:37;94406.69;;;26.19;57.50
6090;BME280;3073;42.660;23.316;2023-07-30T03:08:07;94404.44;;;26.05;57.63
6090;BME280;3073;42.660;23.316;2023-07-30T03:10:36;94404.75;;;25.88;58.13
6090;BME280;3073;42.660;23.316;2023-07-30T03:13:02;94409.78;;;25.81;58.51
6090;BME280;3073;42.660;23.316;2023-07-30T03:15:29;94406.44;;;26.24;57.33
6090;BME280;3073;42.660;23.316;2023-07-30T03:17:56;94407.47;;;26.35;56.68
6090;BME280;3073;42.660;23.316;2023-07-30T03:20:24;94401.53;;;26.22;56.75
6090;BME280;3073;42.660;23.316;2023-07-30T03:22:51;94411.25;;;26.37;56.47
6090;BME280;3073;42.660;23.316;2023-07-30T03:25:18;94403.56;;;26.29;57.38
6090;BME280;3073;42.660;23.316;2023-07-30T03:27:44;94388.38;;;26.50;57.01
6090;BME280;3073;42.660;23.316;2023-07-30T03:30:11;94400.38;;;26.51;56.98
6090;BME280;3073;42.660;23.316;2023-07-30T03:32:38;94394.13;;;26.40;57.54
6090;BME280;3073;42.660;23.316;2023-07-30T03:35:06;94401.38;;;26.31;57.77
6090;BME280;3073;42.660;23.316;2023-07-30T03:37:34;94397.19;;;26.42;57.38
6090;BME280;3073;42.660;23.316;2023-07-30T03:40:01;94404.41;;;26.33;57.69
6090;BME280;3073;42.660;23.316;2023-07-30T03:42:28;94406.03;;;26.37;57.68
6090;BME280;3073;42.660;23.316;2023-07-30T03:44:55;94406.63;;;26.46;57.43
6090;BME280;3073;42.660;23.316;2023-07-30T03:47:22;94403.06;;;26.39;57.37
6090;BME280;3073;42.660;23.316;2023-07-30T03:49:49;94404.59;;;26.40;57.10
6090;BME280;3073;42.660;23.316;2023-07-30T03:52:15;94408.47;;;26.46;57.17
6090;BME280;3073;42.660;23.316;2023-07-30T03:54:44;94413.38;;;26.47;57.73
6090;BME280;3073;42.660;23.316;2023-07-30T03:57:10;94410.94;;;26.54;57.67
6090;BME280;3073;42.660;23.316;2023-07-30T03:59:37;94419.97;;;26.57;57.46
6090;BME280;3073;42.660;23.316;2023-07-30T04:02:04;94419.38;;;26.63;57.56
6090;BME280;3073;42.660;23.316;2023-07-30T04:04:31;94418.25;;;26.80;57.21
6090;BME280;3073;42.660;23.316;2023-07-30T04:06:58;94414.63;;;26.53;58.12
6090;BME280;3073;42.660;23.316;2023-07-30T04:09:24;94420.72;;;26.42;58.90
6090;BME280;3073;42.660;23.316;2023-07-30T04:11:52;94421.78;;;26.72;58.06
6090;BME280;3073;42.660;23.316;2023-07-30T04:14:19;94429.59;;;26.84;57.73
6090;BME280;3073;42.660;23.316;2023-07-30T04:16:46;94425.19;;;26.73;57.51
6090;BME280;3073;42.660;23.316;2023-07-30T04:19:14;94419.91;;;26.85;56.76
6090;BME280;3073;42.660;23.316;2023-07-30T04:21:41;94420.97;;;26.84;56.51
6090;BME280;3073;42.660;23.316;2023-07-30T04:24:07;94424.69;;;26.67;55.90
6090;BME280;3073;42.660;23.316;2023-07-30T04:26:34;94423.50;;;26.65;56.40
6090;BME280;3073;42.660;23.316;2023-07-30T04:29:02;94428.81;;;26.99;55.26
6090;BME280;3073;42.660;23.316;2023-07-30T04:31:29;94432.34;;;26.76;55.19
6090;BME280;3073;42.660;23.316;2023-07-30T04:33:57;94427.63;;;26.97;55.03
6090;BME280;3073;42.660;23.316;2023-07-30T04:36:24;94429.69;;;27.23;54.66
6090;BME280;3073;42.660;23.316;2023-07-30T04:38:51;94419.91;;;27.20;55.09
6090;BME280;3073;42.660;23.316;2023-07-30T04:41:18;94423.16;;;27.48;53.66
6090;BME280;3073;42.660;23.316;2023-07-30T04:43:45;94425.78;;;27.67;53.46
6090;BME280;3073;42.660;23.316;2023-07-30T04:46:14;94432.88;;;27.86;52.85
6090;BME280;3073;42.660;23.316;2023-07-30T04:48:40;94432.19;;;27.70;53.36
6090;BME280;3073;42.660;23.316;2023-07-30T04:51:07;94434.75;;;27.85;53.38
6090;BME280;3073;42.660;23.316;2023-07-30T04:53:34;94434.75;;;27.85;52.98
6090;BME280;3073;42.660;23.316;2023-07-30T04:56:01;94432.81;;;28.01;52.96
6090;BME280;3073;42.660;23.316;2023-07-30T04:58:27;94434.88;;;28.11;52.54
6090;BME280;3073;42.660;23.316;2023-07-30T05:00:54;94433.16;;;28.42;52.34
6090;BME280;3073;42.660;23.316;2023-07-30T05:03:23;94436.19;;;28.02;53.17
6090;BME280;3073;42.660;23.316;2023-07-30T05:05:50;94436.03;;;27.76;55.09
6090;BME280;3073;42.660;23.316;2023-07-30T05:08:17;94430.13;;;27.79;54.15
6090;BME280;3073;42.660;23.316;2023-07-30T05:10:44;94435.72;;;27.58;53.09
6090;BME280;3073;42.660;23.316;2023-07-30T05:13:10;94430.25;;;27.67;54.25
6090;BME280;3073;42.660;23.316;2023-07-30T05:15:38;94433.75;;;27.93;53.17
6090;BME280;3073;42.660;23.316;2023-07-30T05:18:05;94432.78;;;27.82;53.33
6090;BME280;3073;42.660;23.316;2023-07-30T05:20:33;94431.69;;;27.83;54.68
6090;BME280;3073;42.660;23.316;2023-07-30T05:23:00;94428.44;;;28.09;53.14
6090;BME280;3073;42.660;23.316;2023-07-30T05:25:27;94430.47;;;28.38;54.62
6090;BME280;3073;42.660;23.316;2023-07-30T05:27:55;94432.41;;;27.61;53.38
6090;BME280;3073;42.660;23.316;2023-07-30T05:30:21;94426.72;;;28.17;52.86
6090;BME280;3073;42.660;23.316;2023-07-30T05:32:48;94428.06;;;28.30;53.96
6090;BME280;3073;42.660;23.316;2023-07-30T05:35:15;94423.31;;;28.35;51.81
6090;BME280;3073;42.660;23.316;2023-07-30T05:37:45;94424.13;;;28.62;52.72
6090;BME280;3073;42.660;23.316;2023-07-30T05:40:12;94434.06;;;28.72;51.73
6090;BME280;3073;42.660;23.316;2023-07-30T05:42:38;94438.09;;;28.92;51.08
6090;BME280;3073;42.660;23.316;2023-07-30T05:45:06;94442.94;;;29.39;50.48
6090;BME280;3073;42.660;23.316;2023-07-30T05:47:34;94441.66;;;29.03;51.40
6090;BME280;3073;42.660;23.316;2023-07-30T05:50:01;94436.72;;;28.98;50.64
6090;BME280;3073;42.660;23.316;2023-07-30T05:52:29;94431.97;;;29.34;48.98
6090;BME280;3073;42.660;23.316;2023-07-30T05:54:57;94441.63;;;29.26;50.35
6090;BME280;3073;42.660;23.316;2023-07-30T05:57:24;94444.00;;;29.94;48.71
6090;BME280;3073;42.660;23.316;2023-07-30T05:59:50;94437.66;;;30.36;48.88
6090;BME280;3073;42.660;23.316;2023-07-30T06:02:17;94445.25;;;31.36;46.47
6090;BME280;3073;42.660;23.316;2023-07-30T06:04:44;94450.63;;;31.53;44.71
6090;BME280;3073;42.660;23.316;2023-07-30T06:07:11;94443.81;;;32.92;42.12
6090;BME280;3073;42.660;23.316;2023-07-30T06:09:38;94456.25;;;33.41;41.65
6090;BME280;3073;42.660;23.316;2023-07-30T06:12:07;94447.50;;;34.45;40.18
6090;BME280;3073;42.660;23.316;2023-07-30T06:14:34;94449.94;;;35.25;38.23
6090;BME280;3073;42.660;23.316;2023-07-30T06:17:00;94452.38;;;35.80;37.36
6090;BME280;3073;42.660;23.316;2023-07-30T06:19:27;94460.88;;;34.86;37.09
6090;BME280;3073;42.660;23.316;2023-07-30T06:21:54;94449.00;;;35.79;37.13
6090;BME280;3073;42.660;23.316;2023-07-30T06:24:21;94450.53;;;36.10;36.48
6090;BME280;3073;42.660;23.316;2023-07-30T06:26:48;94455.31;;;36.23;35.79
6090;BME280;3073;42.660;23.316;2023-07-30T06:29:16;94449.19;;;37.26;35.03
6090;BME280;3073;42.660;23.316;2023-07-30T06:31:43;94449.34;;;36.42;34.88
6090;BME280;3073;42.660;23.316;2023-07-30T06:34:10;94445.19;;;37.14;34.62
6090;BME280;3073;42.660;23.316;2023-07-30T06:36:37;94444.69;;;37.42;34.29
6090;BME280;3073;42.660;23.316;2023-07-30T06:39:04;94445.31;;;37.93;33.00
6090;BME280;3073;42.660;23.316;2023-07-30T06:41:31;94433.72;;;35.87;34.70
6090;BME280;3073;42.660;23.316;2023-07-30T06:43:59;94434.16;;;36.92;33.91
6090;BME280;3073;42.660;23.316;2023-07-30T06:46:29;94435.50;;;36.27;34.47
6090;BME280;3073;42.660;23.316;2023-07-30T06:48:56;94423.41;;;36.49;34.20
6090;BME280;3073;42.660;23.316;2023-07-30T06:51:24;94423.00;;;35.63;35.50
6090;BME280;3073;42.660;23.316;2023-07-30T06:53:51;94422.31;;;35.59;36.11
6090;BME280;3073;42.660;23.316;2023-07-30T06:56:18;94414.94;;;36.58;35.06
6090;BME280;3073;42.660;23.316;2023-07-30T06:58:46;94419.06;;;36.86;34.55
6090;BME280;3073;42.660;23.316;2023-07-30T07:01:13;94417.13;;;36.63;34.32
6090;BME280;3073;42.660;23.316;2023-07-30T07:03:41;94420.75;;;37.62;32.62
6090;BME280;3073;42.660;23.316;2023-07-30T07:06:09;94417.41;;;38.13;32.33
6090;BME280;3073;42.660;23.316;2023-07-30T07:08:36;94419.50;;;38.58;32.13
6090;BME280;3073;42.660;23.316;2023-07-30T07:11:04;94410.53;;;38.16;32.32
6090;BME280;3073;42.660;23.316;2023-07-30T07:13:33;94414.59;;;38.73;32.08
6090;BME280;3073;42.660;23.316;2023-07-30T07:16:00;94413.41;;;38.05;32.01
6090;BME280;3073;42.660;23.316;2023-07-30T07:18:27;94401.72;;;38.35;32.19
6090;BME280;3073;42.660;23.316;2023-07-30T07:20:55;94402.25;;;38.10;32.71
6090;BME280;3073;42.660;23.316;2023-07-30T07:23:23;94400.66;;;38.49;32.30
6090;BME280;3073;42.660;23.316;2023-07-30T07:25:51;94401.41;;;38.82;31.75
6090;BME280;3073;42.660;23.316;2023-07-30T07:28:18;94392.31;;;38.63;32.23
6090;BME280;3073;42.660;23.316;2023-07-30T07:30:45;94402.81;;;38.38;31.92
6090;BME280;3073;42.660;23.316;2023-07-30T07:33:13;94394.19;;;38.30;31.58
6090;BME280;3073;42.660;23.316;2023-07-30T07:35:40;94386.59;;;37.96;32.12
6090;BME280;3073;42.660;23.316;2023-07-30T07:38:08;94393.63;;;38.23;31.82
6090;BME280;3073;42.660;23.316;2023-07-30T07:40:36;94383.81;;;38.52;31.69
6090;BME280;3073;42.660;23.316;2023-07-30T07:43:04;94388.31;;;38.71;31.58
6090;BME280;3073;42.660;23.316;2023-07-30T07:45:33;94381.81;;;38.72;30.38
6090;BME280;3073;42.660;23.316;2023-07-30T07:47:59;94386.81;;;38.38;30.91
6090;BME280;3073;42.660;23.316;2023-07-30T07:50:26;94379.31;;;39.10;30.12
6090;BME280;3073;42.660;23.316;2023-07-30T07:52:53;94385.47;;;38.78;30.46
6090;BME280;3073;42.660;23.316;2023-07-30T07:55:21;94383.31;;;38.41;30.66
6090;BME280;3073;42.660;23.316;2023-07-30T07:57:48;94385.84;;;39.25;29.14
6090;BME280;3073;42.660;23.316;2023-07-30T08:00:17;94388.16;;;39.23;29.59
6090;BME280;3073;42.660;23.316;2023-07-30T08:02:43;94377.09;;;39.37;29.48
6090;BME280;3073;42.660;23.316;2023-07-30T08:05:10;94376.78;;;39.77;29.38
6090;BME280;3073;42.660;23.316;2023-07-30T08:07:37;94378.53;;;39.67;27.93
6090;BME280;3073;42.660;23.316;2023-07-30T08:10:04;94378.19;;;39.81;27.68
6090;BME280;3073;42.660;23.316;2023-07-30T08:12:33;94373.75;;;39.62;27.58
6090;BME280;3073;42.660;23.316;2023-07-30T08:14:59;94376.16;;;38.86;28.86
6090;BME280;3073;42.660;23.316;2023-07-30T08:17:26;94366.38;;;38.15;29.35
6090;BME280;3073;42.660;23.316;2023-07-30T08:19:54;94361.31;;;38.37;28.86
6090;BME280;3073;42.660;23.316;2023-07-30T08:22:21;94368.13;;;38.86;29.06
6090;BME280;3073;42.660;23.316;2023-07-30T08:24:47;94373.63;;;38.95;27.69
6090;BME280;3073;42.660;23.316;2023-07-30T08:27:14;94359.78;;;38.68;28.19
6090;BME280;3073;42.660;23.316;2023-07-30T08:29:42;94368.78;;;39.35;27.81
6090;BME280;3073;42.660;23.316;2023-07-30T08:32:12;94365.78;;;39.75;27.55
6090;BME280;3073;42.660;23.316;2023-07-30T08:34:39;94357.59;;;39.53;28.00
6090;BME280;3073;42.660;23.316;2023-07-30T08:37:06;94356.84;;;39.65;28.33
6090;BME280;3073;42.660;23.316;2023-07-30T08:39:33;94351.88;;;39.92;28.79
6090;BME280;3073;42.660;23.316;2023-07-30T08:41:59;94352.13;;;40.23;28.00
6090;BME280;3073;42.660;23.316;2023-07-30T08:44:26;94341.59;;;41.23;27.64
6090;BME280;3073;42.660;23.316;2023-07-30T08:46:54;94339.19;;;40.69;27.89
6090;BME280;3073;42.660;23.316;2023-07-30T08:49:21;94340.41;;;41.02;26.86
6090;BME280;3073;42.660;23.316;2023-07-30T08:51:52;94336.56;;;41.46;26.53
6090;BME280;3073;42.660;23.316;2023-07-30T08:54:20;94343.25;;;41.07;26.49
6090;BME280;3073;42.660;23.316;2023-07-30T08:56:48;94340.81;;;40.66;27.67
6090;BME280;3073;42.660;23.316;2023-07-30T08:59:16;94334.97;;;40.80;27.45
6090;BME280;3073;42.660;23.316;2023-07-30T09:01:45;94330.41;;;41.37;27.27
6090;BME280;3073;42.660;23.316;2023-07-30T09:04:17;94334.34;;;41.10;26.55
6090;BME280;3073;42.660;23.316;2023-07-30T09:06:47;94328.41;;;41.59;25.67
6090;BME280;3073;42.660;23.316;2023-07-30T09:09:15;94325.72;;;40.94;25.71
6090;BME280;3073;42.660;23.316;2023-07-30T09:11:42;94329.06;;;41.72;25.28
6090;BME280;3073;42.660;23.316;2023-07-30T09:14:09;94319.47;;;40.75;24.93
6090;BME280;3073;42.660;23.316;2023-07-30T09:16:36;94323.88;;;41.47;25.20
6090;BME280;3073;42.660;23.316;2023-07-30T09:19:05;94326.00;;;41.08;25.68
6090;BME280;3073;42.660;23.316;2023-07-30T09:21:34;94323.19;;;41.55;24.47
6090;BME280;3073;42.660;23.316;2023-07-30T09:24:02;94319.25;;;42.09;23.78
6090;BME280;3073;42.660;23.316;2023-07-30T09:26:45;94322.59;;;42.22;23.79
6090;BME280;3073;42.660;23.316;2023-07-30T09:29:13;94324.88;;;42.33;23.02
6090;BME280;3073;42.660;23.316;2023-07-30T09:31:45;94311.88;;;42.22;23.97
6090;BME280;3073;42.660;23.316;2023-07-30T09:34:15;94311.22;;;42.18;24.27
6090;BME280;3073;42.660;23.316;2023-07-30T09:36:44;94313.09;;;42.48;24.01
6090;BME280;3073;42.660;23.316;2023-07-30T09:39:16;94309.19;;;42.31;23.94
6090;BME280;3073;42.660;23.316;2023-07-30T09:41:45;94300.28;;;42.52;24.00
6090;BME280;3073;42.660;23.316;2023-07-30T09:44:12;94303.25;;;42.54;23.27
6090;BME280;3073;42.660;23.316;2023-07-30T09:46:43;94298.84;;;43.06;23.59
6090;BME280;3073;42.660;23.316;2023-07-30T09:49:10;94295.69;;;43.68;22.62
6090;BME280;3073;42.660;23.316;2023-07-30T09:51:38;94284.22;;;42.80;23.13
6090;BME280;3073;42.660;23.316;2023-07-30T09:54:08;94295.50;;;41.89;23.74
6090;BME280;3073;42.660;23.316;2023-07-30T09:56:36;94289.88;;;41.96;23.72
6090;BME280;3073;42.660;23.316;2023-07-30T09:59:04;94287.00;;;42.40;23.43
6090;BME280;3073;42.660;23.316;2023-07-30T10:01:31;94291.94;;;42.96;23.50
6090;BME280;3073;42.660;23.316;2023-07-30T10:03:57;94284.59;;;43.42;23.42
6090;BME280;3073;42.660;23.316;2023-07-30T10:06:25;94282.13;;;43.62;23.16
6090;BME280;3073;42.660;23.316;2023-07-30T10:08:56;94279.84;;;42.55;23.76
6090;BME280;3073;42.660;23.316;2023-07-30T10:11:27;94276.66;;;43.38;23.52
6090;BME280;3073;42.660;23.316;2023-07-30T10:13:55;94272.16;;;43.53;22.94
6090;BME280;3073;42.660;23.316;2023-07-30T10:16:25;94271.03;;;44.35;22.37
6090;BME280;3073;42.660;23.316;2023-07-30T10:18:56;94268.44;;;44.17;22.85
6090;BME280;3073;42.660;23.316;2023-07-30T10:21:25;94263.44;;;42.98;23.50
6090;BME280;3073;42.660;23.316;2023-07-30T10:24:00;94265.09;;;43.65;22.98
6090;BME280;3073;42.660;23.316;2023-07-30T10:26:30;94257.41;;;43.31;22.82
6090;BME280;3073;42.660;23.316;2023-07-30T10:29:16;94257.84;;;43.38;23.32
6090;BME280;3073;42.660;23.316;2023-07-30T10:31:48;94247.00;;;43.15;23.01
6090;BME280;3073;42.660;23.316;2023-07-30T10:34:15;94258.22;;;43.64;22.84
6090;BME280;3073;42.660;23.316;2023-07-30T10:36:44;94248.22;;;43.97;22.85
6090;BME280;3073;42.660;23.316;2023-07-30T10:39:12;94244.50;;;42.75;22.92
6090;BME280;3073;42.660;23.316;2023-07-30T10:41:43;94234.00;;;42.04;23.27
6090;BME280;3073;42.660;23.316;2023-07-30T10:44:17;94236.34;;;42.60;23.10
6090;BME280;3073;42.660;23.316;2023-07-30T10:46:44;94235.09;;;43.57;22.20
6090;BME280;3073;42.660;23.316;2023-07-30T10:49:11;94230.53;;;44.05;21.93
6090;BME280;3073;42.660;23.316;2023-07-30T10:51:38;94232.66;;;44.01;22.50
6090;BME280;3073;42.660;23.316;2023-07-30T10:54:07;94216.53;;;43.69;21.79
6090;BME280;3073;42.660;23.316;2023-07-30T10:56:37;94212.19;;;43.29;22.20
6090;BME280;3073;42.660;23.316;2023-07-30T10:59:06;94213.03;;;43.77;22.89
6090;BME280;3073;42.660;23.316;2023-07-30T11:01:36;94218.31;;;44.43;22.53
6090;BME280;3073;42.660;23.316;2023-07-30T11:04:06;94206.31;;;44.68;22.18
6090;BME280;3073;42.660;23.316;2023-07-30T11:06:33;94209.56;;;45.45;21.53
6090;BME280;3073;42.660;23.316;2023-07-30T11:09:00;94194.41;;;43.97;21.99
6090;BME280;3073;42.660;23.316;2023-07-30T11:11:28;94189.88;;;44.27;22.35
6090;BME280;3073;42.660;23.316;2023-07-30T11:13:56;94188.03;;;44.57;21.35
6090;BME280;3073;42.660;23.316;2023-07-30T11:16:25;94188.78;;;44.87;21.97
6090;BME280;3073;42.660;23.316;2023-07-30T11:18:53;94181.44;;;45.02;21.68
6090;BME280;3073;42.660;23.316;2023-07-30T11:21:20;94176.03;;;44.87;21.02
6090;BME280;3073;42.660;23.316;2023-07-30T11:23:47;94174.19;;;44.93;21.18
6090;BME280;3073;42.660;23.316;2023-07-30T11:26:16;94179.66;;;44.84;21.15
6090;BME280;3073;42.660;23.316;2023-07-30T11:28:43;94168.78;;;44.64;21.52
6090;BME280;3073;42.660;23.316;2023-07-30T11:31:12;94168.38;;;44.42;21.56
6090;BME280;3073;42.660;23.316;2023-07-30T11:33:42;94169.13;;;44.42;22.21
6090;BME280;3073;42.660;23.316;2023-07-30T11:36:12;94162.00;;;44.69;21.89
6090;BME280;3073;42.660;23.316;2023-07-30T11:38:41;94163.59;;;45.04;21.91
6090;BME280;3073;42.660;23.316;2023-07-30T11:41:09;94155.84;;;45.41;21.11
6090;BME280;3073;42.660;23.316;2023-07-30T11:43:41;94151.72;;;44.67;21.24
6090;BME280;3073;42.660;23.316;2023-07-30T11:46:11;94144.84;;;44.95;20.70
6090;BME280;3073;42.660;23.316;2023-07-30T11:48:42;94145.97;;;44.60;21.78
6090;BME280;3073;42.660;23.316;2023-07-30T11:51:20;94141.84;;;45.08;21.02
6090;BME280;3073;42.660;23.316;2023-07-30T11:53:48;94138.38;;;45.37;20.92
6090;BME280;3073;42.660;23.316;2023-07-30T11:56:23;94132.88;;;45.46;21.05
6090;BME280;3073;42.660;23.316;2023-07-30T11:58:53;94130.91;;;45.46;21.13
6090;BME280;3073;42.660;23.316;2023-07-30T12:01:20;94126.59;;;45.20;20.90
6090;BME280;3073;42.660;23.316;2023-07-30T12:03:48;94123.03;;;45.43;21.09
6090;BME280;3073;42.660;23.316;2023-07-30T12:06:15;94120.91;;;45.18;20.57
6090;BME280;3073;42.660;23.316;2023-07-30T12:08:42;94119.44;;;46.32;20.56
6090;BME280;3073;42.660;23.316;2023-07-30T12:11:09;94110.34;;;46.30;20.07
6090;BME280;3073;42.660;23.316;2023-07-30T12:13:44;94113.41;;;46.17;20.22
6090;BME280;3073;42.660;23.316;2023-07-30T12:16:12;94101.19;;;45.81;19.90
6090;BME280;3073;42.660;23.316;2023-07-30T12:18:40;94105.50;;;45.53;20.40
6090;BME280;3073;42.660;23.316;2023-07-30T12:21:08;94090.75;;;44.99;20.45
6090;BME280;3073;42.660;23.316;2023-07-30T12:23:36;94090.53;;;45.52;21.14
6090;BME280;3073;42.660;23.316;2023-07-30T12:26:04;94082.13;;;45.30;20.98
6090;BME280;3073;42.660;23.316;2023-07-30T12:28:31;94077.84;;;45.38;20.65
6090;BME280;3073;42.660;23.316;2023-07-30T12:30:59;94083.25;;;45.78;20.48
6090;BME280;3073;42.660;23.316;2023-07-30T12:33:26;94081.81;;;45.07;20.59
6090;BME280;3073;42.660;23.316;2023-07-30T12:35:53;94077.78;;;44.53;21.50
6090;BME280;3073;42.660;23.316;2023-07-30T12:38:21;94075.03;;;44.09;21.77
6090;BME280;3073;42.660;23.316;2023-07-30T12:40:48;94082.34;;;43.23;22.21
6090;BME280;3073;42.660;23.316;2023-07-30T12:43:16;94071.13;;;43.72;22.21
6090;BME280;3073;42.660;23.316;2023-07-30T12:45:44;94070.09;;;43.93;21.95
6090;BME280;3073;42.660;23.316;2023-07-30T12:48:11;94062.72;;;44.18;21.41
6090;BME280;3073;42.660;23.316;2023-07-30T12:50:38;94057.56;;;43.90;21.85
6090;BME280;3073;42.660;23.316;2023-07-30T12:53:05;94054.16;;;44.04;21.38
6090;BME280;3073;42.660;23.316;2023-07-30T12:55:33;94057.91;;;44.66;21.94
6090;BME280;3073;42.660;23.316;2023-07-30T12:58:00;94047.91;;;43.84;21.47
6090;BME280;3073;42.660;23.316;2023-07-30T13:00:27;94048.31;;;44.06;21.78
6090;BME280;3073;42.660;23.316;2023-07-30T13:02:54;94047.19;;;43.59;21.90
6090;BME280;3073;42.660;23.316;2023-07-30T13:05:22;94054.19;;;42.58;22.46
6090;BME280;3073;42.660;23.316;2023-07-30T13:07:49;94049.97;;;42.25;22.31
6090;BME280;3073;42.660;23.316;2023-07-30T13:10:16;94046.25;;;41.49;23.64
6090;BME280;3073;42.660;23.316;2023-07-30T13:12:44;94036.50;;;39.67;25.37